createdAt,value
2022-11-11T00:03:46.994Z,9.1
2022-11-11T00:18:46.987Z,9.5
2022-11-11T00:33:47.082Z,9.6
2022-11-11T00:48:46.988Z,9.2
2022-11-11T01:03:47.097Z,9.2
2022-11-11T01:18:46.998Z,8.8
2022-11-11T01:33:47.104Z,8.6
2022-11-11T01:48:47.111Z,8.6
2022-11-11T02:03:47.066Z,8.8
2022-11-11T02:18:46.997Z,8.7
2022-11-11T02:33:47.018Z,8.6
2022-11-11T02:48:47.099Z,8.4
2022-11-11T03:03:46.997Z,8.6
2022-11-11T03:18:47.241Z,8.8
2022-11-11T03:33:46.998Z,8.9
2022-11-11T03:48:47.016Z,8.7
2022-11-11T04:03:47.006Z,8.7
2022-11-11T04:18:46.990Z,8.8
2022-11-11T04:33:47.003Z,8.8
2022-11-11T04:48:47.000Z,8.9
2022-11-11T05:03:47.007Z,8.6
2022-11-11T05:18:46.996Z,8.6
2022-11-11T05:33:46.995Z,8.5
2022-11-11T05:48:46.996Z,8.6
2022-11-11T06:03:46.999Z,8.6
2022-11-11T06:18:47.005Z,8.1
2022-11-11T06:33:47.000Z,7.9
2022-11-11T06:48:46.994Z,7.9
2022-11-11T07:03:46.973Z,7.7
2022-11-11T07:18:47.007Z,7.8
2022-11-11T07:33:47.010Z,8.1
2022-11-11T07:48:47.007Z,8.3
2022-11-11T08:03:46.997Z,8.6
2022-11-11T08:18:46.999Z,9
2022-11-11T08:33:47.412Z,9.4
2022-11-11T08:48:46.994Z,9.8
2022-11-11T09:03:46.995Z,9.9
2022-11-11T09:18:46.997Z,10.1
2022-11-11T09:33:46.992Z,10.4
2022-11-11T09:48:47.005Z,10.5
2022-11-11T10:03:47.000Z,10.9
2022-11-11T10:18:47.012Z,11.4
2022-11-11T10:33:46.985Z,11.6
2022-11-11T10:48:46.996Z,11.9
2022-11-11T11:03:46.984Z,12.1
2022-11-11T11:18:47.000Z,12.4
2022-11-11T11:33:46.988Z,12.6
2022-11-11T11:48:47.496Z,12.6
2022-11-11T12:03:46.994Z,13.2
2022-11-11T12:18:46.999Z,13.4
2022-11-11T12:33:47.000Z,13.9
2022-11-11T12:48:47.004Z,14.2
2022-11-11T13:03:46.988Z,13.8
2022-11-11T13:18:47.002Z,14.3
2022-11-11T13:33:47.010Z,14.1
2022-11-11T13:48:46.997Z,13.9
2022-11-11T14:03:46.997Z,13.6
2022-11-11T14:18:47.021Z,13
2022-11-11T14:33:47.031Z,13.3
2022-11-11T14:48:47.001Z,13.2
2022-11-11T15:03:47.015Z,13.1
2022-11-11T15:18:46.995Z,12.9
2022-11-11T15:33:47.005Z,12.2
2022-11-11T15:48:46.986Z,11.8
2022-11-11T16:03:47.000Z,11.4
2022-11-11T16:18:46.993Z,11.1
2022-11-11T16:33:46.999Z,10.8
2022-11-11T16:48:46.978Z,10.6
2022-11-11T17:03:47.002Z,10.4
2022-11-11T17:18:47.013Z,10.2
2022-11-11T17:33:47.015Z,10
2022-11-11T17:48:47.005Z,9.9
2022-11-11T18:03:46.986Z,9.8
2022-11-11T18:18:47.010Z,9.8
2022-11-11T18:33:47.008Z,9.6
2022-11-11T18:48:46.992Z,9.6
2022-11-11T19:03:46.990Z,9.6
2022-11-11T19:18:46.989Z,9.4
2022-11-11T19:33:49.442Z,9
2022-11-11T19:48:46.990Z,8.9
2022-11-11T20:03:46.991Z,9
2022-11-11T20:18:46.996Z,8.8
2022-11-11T20:33:47.006Z,8.6
2022-11-11T20:48:46.987Z,8.3
2022-11-11T21:03:46.992Z,8.5
2022-11-11T21:18:46.995Z,8.9
2022-11-11T21:33:46.987Z,9.2
2022-11-11T21:48:46.995Z,9.1
2022-11-11T22:03:46.984Z,8.5
2022-11-11T22:18:46.993Z,8
2022-11-11T22:33:47.001Z,7.8
2022-11-11T22:48:47.008Z,7.6
2022-11-11T23:03:47.003Z,7.6
2022-11-11T23:18:46.998Z,7.2
2022-11-11T23:33:46.993Z,7.1
2022-11-11T23:48:46.984Z,7.4
